CheckWX is a tool to help pilots better visualize weather data.  It is not intended as a substitute for an official pre-flight weather briefing.

05:26:36 UTC

LDDU TAF
Dubrovnik Airport
Dubrovnik, Croatia
TAF LDDU 232325Z 2400/2500 02025G35KT CAVOK TX06/2412Z TN01/2404Z PROB30 TEMPO 2400/2403 03030G50KT BECMG 2407/2409 03020KT TEMPO 2409/2418 VRB20G35KT PROB40 TEMPO 2409/2418 02025G35KT PROB30 TEMPO 2409/2414 07010KT BECMG 2416/2418 03028G40KT

Feb-24@
00:00 UTC

Feb-24 @ 00:00 UTC

Feb-24@
07:00 UTC

Feb-24 @ 07:00 UTC

TAF LDDU 232325Z 2400/2500 02025G35KT CAVOK TX06/2412Z TN01/2404Z
Wind
  • 020° at 25 KTS
  • {Gusting to 35 KTS
Cloud Levels
  • No significant clouds

Feb-24@
00:00 UTC

Feb-24 @ 00:00 UTC

Feb-24@
03:00 UTC

Feb-24 @ 03:00 UTC

PROB30 TEMPO 2400/2403 03030G50KT

Expired

Wind
  • 030° at 30 KTS
  • {Gusting to 50 KTS

Feb-24@
07:00 UTC

Feb-24 @ 07:00 UTC

Feb-24@
16:00 UTC

Feb-24 @ 16:00 UTC

BECMG 2407/2409 03020KT

Becoming

Becoming Conditions expected by Sun, Feb 24, 2019 @ 09:00 UTC

Wind
  • 030° at 20 KTS
Cloud Levels
  • No significant clouds

Feb-24@
09:00 UTC

Feb-24 @ 09:00 UTC

Feb-24@
14:00 UTC

Feb-24 @ 14:00 UTC

PROB30 TEMPO 2409/2414 07010KT

Temporary - 30% Likelihood

Temporary - 30% Likelihood during this time.

Wind
  • 070° at 10 KTS

Feb-24@
09:00 UTC

Feb-24 @ 09:00 UTC

Feb-24@
18:00 UTC

Feb-24 @ 18:00 UTC

TEMPO 2409/2418 VRB20G35KT

Temporary

Temporary Changes expected for less than half the time period

Wind
  • Variable at 20 KTS
  • {Gusting to 35 KTS

Feb-24@
09:00 UTC

Feb-24 @ 09:00 UTC

Feb-24@
18:00 UTC

Feb-24 @ 18:00 UTC

PROB40 TEMPO 2409/2418 02025G35KT

Temporary - 40% Likelihood

Temporary - 40% Likelihood during this time.

Wind
  • 020° at 25 KTS
  • {Gusting to 35 KTS

Feb-24@
16:00 UTC

Feb-24 @ 16:00 UTC

Feb-25@
00:00 UTC

Feb-25 @ 00:00 UTC

BECMG 2416/2418 03028G40KT

Becoming

Becoming Conditions expected by Sun, Feb 24, 2019 @ 18:00 UTC

Wind
  • 030° at 28 KTS
  • {Gusting to 40 KTS
Cloud Levels
  • No significant clouds